sensor_id;sensor_type;location;lat;lon;timestamp;P1;durP1;ratioP1;P2;durP2;ratioP2
78995;SDS011;68401;47.192;-1.552;2023-09-12T00:00:41;8.50;;;7.00;;
78995;SDS011;68401;47.192;-1.552;2023-09-12T00:03:08;10.57;;;7.82;;
78995;SDS011;68401;47.192;-1.552;2023-09-12T00:05:33;7.72;;;6.53;;
78995;SDS011;68401;47.192;-1.552;2023-09-12T00:07:59;8.98;;;7.15;;
78995;SDS011;68401;47.192;-1.552;2023-09-12T00:10:25;11.57;;;7.38;;
78995;SDS011;68401;47.192;-1.552;2023-09-12T00:12:50;10.18;;;6.85;;
78995;SDS011;68401;47.192;-1.552;2023-09-12T00:15:16;8.98;;;7.72;;
78995;SDS011;68401;47.192;-1.552;2023-09-12T00:17:41;10.55;;;7.68;;
78995;SDS011;68401;47.192;-1.552;2023-09-12T00:20:07;9.68;;;7.10;;
78995;SDS011;68401;47.192;-1.552;2023-09-12T00:22:33;13.50;;;7.88;;
78995;SDS011;68401;47.192;-1.552;2023-09-12T00:24:58;8.02;;;6.43;;
78995;SDS011;68401;47.192;-1.552;2023-09-12T00:27:24;10.68;;;7.53;;
78995;SDS011;68401;47.192;-1.552;2023-09-12T00:29:49;8.80;;;7.75;;
78995;SDS011;68401;47.192;-1.552;2023-09-12T00:32:15;10.18;;;6.95;;
78995;SDS011;68401;47.192;-1.552;2023-09-12T00:34:41;9.32;;;8.25;;
78995;SDS011;68401;47.192;-1.552;2023-09-12T00:37:06;10.77;;;7.13;;
78995;SDS011;68401;47.192;-1.552;2023-09-12T00:39:32;8.93;;;7.20;;
78995;SDS011;68401;47.192;-1.552;2023-09-12T00:41:57;7.50;;;6.32;;
78995;SDS011;68401;47.192;-1.552;2023-09-12T00:44:22;9.23;;;7.25;;
78995;SDS011;68401;47.192;-1.552;2023-09-12T00:46:48;10.25;;;7.03;;
78995;SDS011;68401;47.192;-1.552;2023-09-12T00:49:15;9.27;;;7.25;;
78995;SDS011;68401;47.192;-1.552;2023-09-12T00:51:41;7.88;;;6.47;;
78995;SDS011;68401;47.192;-1.552;2023-09-12T00:54:07;10.68;;;7.45;;
78995;SDS011;68401;47.192;-1.552;2023-09-12T00:56:33;9.05;;;7.30;;
78995;SDS011;68401;47.192;-1.552;2023-09-12T00:58:59;8.68;;;7.15;;
78995;SDS011;68401;47.192;-1.552;2023-09-12T01:01:25;10.23;;;7.53;;
78995;SDS011;68401;47.192;-1.552;2023-09-12T01:03:50;9.45;;;8.02;;
78995;SDS011;68401;47.192;-1.552;2023-09-12T01:06:17;12.02;;;6.82;;
78995;SDS011;68401;47.192;-1.552;2023-09-12T01:08:45;8.38;;;6.82;;
78995;SDS011;68401;47.192;-1.552;2023-09-12T01:11:11;15.18;;;7.88;;
78995;SDS011;68401;47.192;-1.552;2023-09-12T01:13:38;10.07;;;7.68;;
78995;SDS011;68401;47.192;-1.552;2023-09-12T01:16:03;10.27;;;7.13;;
78995;SDS011;68401;47.192;-1.552;2023-09-12T01:18:29;7.32;;;6.53;;
78995;SDS011;68401;47.192;-1.552;2023-09-12T01:21:41;11.70;;;8.00;;
78995;SDS011;68401;47.192;-1.552;2023-09-12T01:26:35;11.45;;;9.13;;
78995;SDS011;68401;47.192;-1.552;2023-09-12T01:29:09;9.48;;;6.80;;
78995;SDS011;68401;47.192;-1.552;2023-09-12T01:31:39;9.35;;;7.38;;
78995;SDS011;68401;47.192;-1.552;2023-09-12T01:34:08;9.40;;;7.43;;
78995;SDS011;68401;47.192;-1.552;2023-09-12T01:36:35;8.82;;;6.68;;
78995;SDS011;68401;47.192;-1.552;2023-09-12T01:39:01;10.50;;;7.03;;
78995;SDS011;68401;47.192;-1.552;2023-09-12T01:41:26;10.57;;;6.85;;
78995;SDS011;68401;47.192;-1.552;2023-09-12T01:43:52;8.88;;;6.50;;
78995;SDS011;68401;47.192;-1.552;2023-09-12T01:46:19;8.23;;;6.63;;
78995;SDS011;68401;47.192;-1.552;2023-09-12T01:48:46;10.95;;;6.95;;
78995;SDS011;68401;47.192;-1.552;2023-09-12T01:51:16;8.25;;;6.57;;
78995;SDS011;68401;47.192;-1.552;2023-09-12T01:53:42;8.10;;;6.32;;
78995;SDS011;68401;47.192;-1.552;2023-09-12T01:56:10;11.95;;;7.70;;
78995;SDS011;68401;47.192;-1.552;2023-09-12T01:58:37;8.45;;;6.35;;
78995;SDS011;68401;47.192;-1.552;2023-09-12T02:01:02;10.90;;;7.32;;
78995;SDS011;68401;47.192;-1.552;2023-09-12T02:03:28;9.65;;;6.40;;
78995;SDS011;68401;47.192;-1.552;2023-09-12T02:05:53;9.75;;;7.30;;
78995;SDS011;68401;47.192;-1.552;2023-09-12T02:08:19;10.02;;;6.97;;
78995;SDS011;68401;47.192;-1.552;2023-09-12T02:10:44;10.55;;;8.02;;
78995;SDS011;68401;47.192;-1.552;2023-09-12T02:13:10;8.63;;;6.75;;
78995;SDS011;68401;47.192;-1.552;2023-09-12T02:15:35;11.05;;;7.60;;
78995;SDS011;68401;47.192;-1.552;2023-09-12T02:18:01;9.48;;;7.88;;
78995;SDS011;68401;47.192;-1.552;2023-09-12T02:20:26;14.57;;;8.40;;
78995;SDS011;68401;47.192;-1.552;2023-09-12T02:22:51;10.60;;;6.90;;
78995;SDS011;68401;47.192;-1.552;2023-09-12T02:25:17;9.35;;;6.82;;
78995;SDS011;68401;47.192;-1.552;2023-09-12T02:27:42;10.52;;;8.05;;
78995;SDS011;68401;47.192;-1.552;2023-09-12T02:30:08;11.23;;;7.50;;
78995;SDS011;68401;47.192;-1.552;2023-09-12T02:32:34;9.63;;;7.35;;
78995;SDS011;68401;47.192;-1.552;2023-09-12T02:34:59;11.23;;;6.82;;
78995;SDS011;68401;47.192;-1.552;2023-09-12T02:37:25;13.07;;;8.15;;
78995;SDS011;68401;47.192;-1.552;2023-09-12T02:39:50;11.45;;;7.80;;
78995;SDS011;68401;47.192;-1.552;2023-09-12T02:42:16;10.93;;;8.18;;
78995;SDS011;68401;47.192;-1.552;2023-09-12T02:44:41;13.70;;;9.13;;
78995;SDS011;68401;47.192;-1.552;2023-09-12T02:47:07;10.80;;;7.47;;
78995;SDS011;68401;47.192;-1.552;2023-09-12T02:49:32;10.23;;;7.35;;
78995;SDS011;68401;47.192;-1.552;2023-09-12T02:51:58;11.48;;;7.00;;
78995;SDS011;68401;47.192;-1.552;2023-09-12T02:54:23;8.85;;;7.30;;
78995;SDS011;68401;47.192;-1.552;2023-09-12T02:56:48;9.75;;;7.22;;
78995;SDS011;68401;47.192;-1.552;2023-09-12T02:59:14;11.15;;;8.23;;
78995;SDS011;68401;47.192;-1.552;2023-09-12T03:01:39;10.45;;;7.22;;
78995;SDS011;68401;47.192;-1.552;2023-09-12T03:04:05;9.93;;;7.47;;
78995;SDS011;68401;47.192;-1.552;2023-09-12T03:06:30;9.60;;;7.72;;
78995;SDS011;68401;47.192;-1.552;2023-09-12T03:08:56;10.30;;;7.25;;
78995;SDS011;68401;47.192;-1.552;2023-09-12T03:11:22;11.18;;;7.38;;
78995;SDS011;68401;47.192;-1.552;2023-09-12T03:13:47;10.38;;;6.95;;
78995;SDS011;68401;47.192;-1.552;2023-09-12T03:16:13;9.23;;;7.47;;
78995;SDS011;68401;47.192;-1.552;2023-09-12T03:18:40;12.43;;;7.80;;
78995;SDS011;68401;47.192;-1.552;2023-09-12T03:21:05;7.35;;;6.38;;
78995;SDS011;68401;47.192;-1.552;2023-09-12T03:23:31;11.13;;;7.15;;
78995;SDS011;68401;47.192;-1.552;2023-09-12T03:26:01;10.30;;;7.35;;
78995;SDS011;68401;47.192;-1.552;2023-09-12T03:28:28;10.02;;;7.10;;
78995;SDS011;68401;47.192;-1.552;2023-09-12T03:30:57;9.23;;;6.95;;
78995;SDS011;68401;47.192;-1.552;2023-09-12T03:33:32;7.95;;;7.15;;
78995;SDS011;68401;47.192;-1.552;2023-09-12T03:35:57;10.30;;;6.45;;
78995;SDS011;68401;47.192;-1.552;2023-09-12T03:38:23;9.85;;;7.60;;
78995;SDS011;68401;47.192;-1.552;2023-09-12T03:40:48;9.77;;;7.53;;
78995;SDS011;68401;47.192;-1.552;2023-09-12T03:43:14;8.68;;;6.80;;
78995;SDS011;68401;47.192;-1.552;2023-09-12T03:45:39;8.70;;;5.85;;
78995;SDS011;68401;47.192;-1.552;2023-09-12T03:48:05;8.55;;;6.68;;
78995;SDS011;68401;47.192;-1.552;2023-09-12T03:50:30;7.47;;;6.28;;
78995;SDS011;68401;47.192;-1.552;2023-09-12T03:52:56;9.73;;;6.53;;
78995;SDS011;68401;47.192;-1.552;2023-09-12T03:55:22;8.57;;;6.25;;
78995;SDS011;68401;47.192;-1.552;2023-09-12T03:57:47;10.85;;;6.70;;
78995;SDS011;68401;47.192;-1.552;2023-09-12T04:00:13;11.75;;;6.20;;
78995;SDS011;68401;47.192;-1.552;2023-09-12T04:02:38;11.77;;;6.45;;
78995;SDS011;68401;47.192;-1.552;2023-09-12T04:05:04;9.93;;;6.15;;
78995;SDS011;68401;47.192;-1.552;2023-09-12T04:07:29;9.90;;;6.57;;
78995;SDS011;68401;47.192;-1.552;2023-09-12T04:09:55;8.50;;;6.07;;
78995;SDS011;68401;47.192;-1.552;2023-09-12T04:12:20;8.98;;;6.57;;
78995;SDS011;68401;47.192;-1.552;2023-09-12T04:14:48;9.15;;;5.95;;
78995;SDS011;68401;47.192;-1.552;2023-09-12T04:17:14;6.95;;;5.47;;
78995;SDS011;68401;47.192;-1.552;2023-09-12T04:19:40;9.05;;;4.97;;
78995;SDS011;68401;47.192;-1.552;2023-09-12T04:22:05;11.18;;;6.50;;
78995;SDS011;68401;47.192;-1.552;2023-09-12T04:24:30;8.15;;;5.75;;
78995;SDS011;68401;47.192;-1.552;2023-09-12T04:26:56;8.27;;;5.82;;
78995;SDS011;68401;47.192;-1.552;2023-09-12T04:29:21;6.68;;;5.90;;
78995;SDS011;68401;47.192;-1.552;2023-09-12T04:31:47;9.80;;;5.70;;
78995;SDS011;68401;47.192;-1.552;2023-09-12T04:34:12;7.13;;;5.88;;
78995;SDS011;68401;47.192;-1.552;2023-09-12T04:36:38;8.45;;;6.35;;
78995;SDS011;68401;47.192;-1.552;2023-09-12T04:39:03;9.75;;;5.55;;
78995;SDS011;68401;47.192;-1.552;2023-09-12T04:41:30;8.32;;;6.38;;
78995;SDS011;68401;47.192;-1.552;2023-09-12T04:43:55;8.60;;;6.35;;
78995;SDS011;68401;47.192;-1.552;2023-09-12T04:46:22;5.90;;;4.90;;
78995;SDS011;68401;47.192;-1.552;2023-09-12T04:48:47;6.93;;;5.13;;
78995;SDS011;68401;47.192;-1.552;2023-09-12T04:51:13;6.00;;;4.45;;
78995;SDS011;68401;47.192;-1.552;2023-09-12T04:53:38;6.97;;;4.75;;
78995;SDS011;68401;47.192;-1.552;2023-09-12T04:56:05;9.43;;;5.40;;
78995;SDS011;68401;47.192;-1.552;2023-09-12T04:58:31;7.70;;;4.55;;
78995;SDS011;68401;47.192;-1.552;2023-09-12T05:00:57;8.70;;;4.70;;
78995;SDS011;68401;47.192;-1.552;2023-09-12T05:03:22;5.88;;;4.35;;
78995;SDS011;68401;47.192;-1.552;2023-09-12T05:05:48;9.10;;;4.72;;
78995;SDS011;68401;47.192;-1.552;2023-09-12T05:08:15;6.57;;;4.63;;
78995;SDS011;68401;47.192;-1.552;2023-09-12T05:10:41;7.53;;;5.20;;
78995;SDS011;68401;47.192;-1.552;2023-09-12T05:13:06;6.38;;;3.92;;
78995;SDS011;68401;47.192;-1.552;2023-09-12T05:15:32;8.73;;;4.82;;
78995;SDS011;68401;47.192;-1.552;2023-09-12T05:17:57;6.05;;;4.30;;
78995;SDS011;68401;47.192;-1.552;2023-09-12T05:20:22;6.22;;;4.78;;
78995;SDS011;68401;47.192;-1.552;2023-09-12T05:22:48;9.23;;;4.68;;
78995;SDS011;68401;47.192;-1.552;2023-09-12T05:25:13;5.78;;;4.55;;
78995;SDS011;68401;47.192;-1.552;2023-09-12T05:27:39;7.55;;;4.90;;
78995;SDS011;68401;47.192;-1.552;2023-09-12T05:30:04;8.30;;;5.20;;
78995;SDS011;68401;47.192;-1.552;2023-09-12T05:32:30;8.30;;;4.90;;
78995;SDS011;68401;47.192;-1.552;2023-09-12T05:34:56;8.73;;;4.15;;
78995;SDS011;68401;47.192;-1.552;2023-09-12T05:37:21;5.72;;;3.90;;
78995;SDS011;68401;47.192;-1.552;2023-09-12T05:39:47;6.15;;;4.35;;
78995;SDS011;68401;47.192;-1.552;2023-09-12T05:42:12;8.45;;;5.38;;
78995;SDS011;68401;47.192;-1.552;2023-09-12T05:44:39;7.30;;;5.55;;
78995;SDS011;68401;47.192;-1.552;2023-09-12T05:47:07;10.45;;;4.65;;
78995;SDS011;68401;47.192;-1.552;2023-09-12T05:49:33;8.98;;;4.60;;
78995;SDS011;68401;47.192;-1.552;2023-09-12T05:51:59;6.18;;;4.60;;
78995;SDS011;68401;47.192;-1.552;2023-09-12T05:54:24;8.07;;;4.85;;
78995;SDS011;68401;47.192;-1.552;2023-09-12T05:56:50;8.13;;;5.07;;
78995;SDS011;68401;47.192;-1.552;2023-09-12T05:59:17;8.25;;;4.85;;
78995;SDS011;68401;47.192;-1.552;2023-09-12T06:01:43;6.90;;;3.90;;
78995;SDS011;68401;47.192;-1.552;2023-09-12T06:04:08;7.68;;;3.90;;
78995;SDS011;68401;47.192;-1.552;2023-09-12T06:06:34;7.18;;;4.38;;
78995;SDS011;68401;47.192;-1.552;2023-09-12T06:09:00;9.52;;;4.65;;
78995;SDS011;68401;47.192;-1.552;2023-09-12T06:11:25;7.03;;;5.22;;
78995;SDS011;68401;47.192;-1.552;2023-09-12T06:13:50;7.35;;;5.68;;
78995;SDS011;68401;47.192;-1.552;2023-09-12T06:16:16;9.20;;;4.90;;
78995;SDS011;68401;47.192;-1.552;2023-09-12T06:18:41;7.25;;;4.88;;
78995;SDS011;68401;47.192;-1.552;2023-09-12T06:21:07;8.52;;;6.20;;
78995;SDS011;68401;47.192;-1.552;2023-09-12T06:23:33;9.43;;;5.65;;
78995;SDS011;68401;47.192;-1.552;2023-09-12T06:25:59;9.48;;;5.28;;
78995;SDS011;68401;47.192;-1.552;2023-09-12T06:28:25;10.30;;;6.35;;
78995;SDS011;68401;47.192;-1.552;2023-09-12T06:30:51;10.85;;;6.03;;
78995;SDS011;68401;47.192;-1.552;2023-09-12T06:33:17;8.82;;;6.10;;
78995;SDS011;68401;47.192;-1.552;2023-09-12T06:35:42;8.73;;;5.60;;
78995;SDS011;68401;47.192;-1.552;2023-09-12T06:38:08;7.45;;;4.72;;
78995;SDS011;68401;47.192;-1.552;2023-09-12T06:40:33;7.72;;;5.05;;
78995;SDS011;68401;47.192;-1.552;2023-09-12T06:42:59;13.10;;;7.28;;
78995;SDS011;68401;47.192;-1.552;2023-09-12T06:45:24;7.50;;;5.65;;
78995;SDS011;68401;47.192;-1.552;2023-09-12T06:47:50;8.52;;;5.03;;
78995;SDS011;68401;47.192;-1.552;2023-09-12T06:50:15;9.50;;;6.75;;
78995;SDS011;68401;47.192;-1.552;2023-09-12T06:52:41;11.30;;;5.68;;
78995;SDS011;68401;47.192;-1.552;2023-09-12T06:55:06;9.23;;;5.65;;
78995;SDS011;68401;47.192;-1.552;2023-09-12T06:57:32;8.40;;;6.10;;
78995;SDS011;68401;47.192;-1.552;2023-09-12T06:59:57;7.95;;;5.03;;
78995;SDS011;68401;47.192;-1.552;2023-09-12T07:02:23;10.10;;;5.38;;
78995;SDS011;68401;47.192;-1.552;2023-09-12T07:04:48;7.18;;;5.43;;
78995;SDS011;68401;47.192;-1.552;2023-09-12T07:07:14;9.40;;;5.10;;
78995;SDS011;68401;47.192;-1.552;2023-09-12T07:09:39;7.47;;;4.90;;
78995;SDS011;68401;47.192;-1.552;2023-09-12T07:12:05;10.15;;;5.97;;
78995;SDS011;68401;47.192;-1.552;2023-09-12T07:14:31;8.55;;;5.13;;
78995;SDS011;68401;47.192;-1.552;2023-09-12T07:16:56;9.00;;;5.72;;
78995;SDS011;68401;47.192;-1.552;2023-09-12T07:19:22;6.95;;;4.97;;
78995;SDS011;68401;47.192;-1.552;2023-09-12T07:21:47;7.97;;;6.00;;
78995;SDS011;68401;47.192;-1.552;2023-09-12T07:24:12;7.60;;;5.45;;
78995;SDS011;68401;47.192;-1.552;2023-09-12T07:26:38;7.63;;;4.88;;
78995;SDS011;68401;47.192;-1.552;2023-09-12T07:29:03;7.60;;;5.28;;
78995;SDS011;68401;47.192;-1.552;2023-09-12T07:31:30;9.52;;;5.28;;
78995;SDS011;68401;47.192;-1.552;2023-09-12T07:33:56;6.72;;;4.80;;
78995;SDS011;68401;47.192;-1.552;2023-09-12T07:36:21;8.02;;;4.80;;
78995;SDS011;68401;47.192;-1.552;2023-09-12T07:38:47;8.43;;;5.82;;
78995;SDS011;68401;47.192;-1.552;2023-09-12T07:41:13;5.90;;;5.00;;
78995;SDS011;68401;47.192;-1.552;2023-09-12T07:43:38;8.05;;;4.43;;
78995;SDS011;68401;47.192;-1.552;2023-09-12T07:46:05;5.47;;;4.72;;
78995;SDS011;68401;47.192;-1.552;2023-09-12T07:48:30;6.18;;;5.22;;
78995;SDS011;68401;47.192;-1.552;2023-09-12T07:50:56;7.63;;;5.13;;
78995;SDS011;68401;47.192;-1.552;2023-09-12T07:53:21;7.38;;;5.22;;
78995;SDS011;68401;47.192;-1.552;2023-09-12T07:55:47;5.35;;;3.92;;
78995;SDS011;68401;47.192;-1.552;2023-09-12T07:58:17;6.13;;;4.60;;
78995;SDS011;68401;47.192;-1.552;2023-09-12T08:00:49;6.85;;;4.75;;
78995;SDS011;68401;47.192;-1.552;2023-09-12T08:03:14;8.32;;;4.63;;
78995;SDS011;68401;47.192;-1.552;2023-09-12T08:05:40;8.43;;;5.32;;
78995;SDS011;68401;47.192;-1.552;2023-09-12T08:08:05;9.40;;;6.20;;
78995;SDS011;68401;47.192;-1.552;2023-09-12T08:10:31;7.68;;;4.50;;
78995;SDS011;68401;47.192;-1.552;2023-09-12T08:12:57;8.18;;;5.20;;
78995;SDS011;68401;47.192;-1.552;2023-09-12T08:15:22;7.68;;;4.70;;
78995;SDS011;68401;47.192;-1.552;2023-09-12T08:17:48;8.25;;;4.97;;
78995;SDS011;68401;47.192;-1.552;2023-09-12T08:20:16;7.60;;;5.30;;
78995;SDS011;68401;47.192;-1.552;2023-09-12T08:22:42;7.93;;;5.47;;
78995;SDS011;68401;47.192;-1.552;2023-09-12T08:25:08;5.63;;;4.72;;
78995;SDS011;68401;47.192;-1.552;2023-09-12T08:27:35;6.35;;;4.13;;
78995;SDS011;68401;47.192;-1.552;2023-09-12T08:30:00;7.82;;;5.10;;
78995;SDS011;68401;47.192;-1.552;2023-09-12T08:32:26;5.28;;;4.28;;
78995;SDS011;68401;47.192;-1.552;2023-09-12T08:34:51;8.38;;;5.85;;
78995;SDS011;68401;47.192;-1.552;2023-09-12T08:37:17;6.97;;;6.13;;
78995;SDS011;68401;47.192;-1.552;2023-09-12T08:39:43;7.68;;;5.07;;
78995;SDS011;68401;47.192;-1.552;2023-09-12T08:42:12;7.28;;;4.88;;
78995;SDS011;68401;47.192;-1.552;2023-09-12T08:44:39;7.80;;;5.50;;
78995;SDS011;68401;47.192;-1.552;2023-09-12T08:47:07;8.55;;;5.50;;
78995;SDS011;68401;47.192;-1.552;2023-09-12T08:49:34;10.30;;;7.00;;
78995;SDS011;68401;47.192;-1.552;2023-09-12T08:52:02;10.15;;;5.30;;
78995;SDS011;68401;47.192;-1.552;2023-09-12T08:54:29;11.13;;;6.03;;
78995;SDS011;68401;47.192;-1.552;2023-09-12T08:56:54;6.50;;;4.50;;
78995;SDS011;68401;47.192;-1.552;2023-09-12T08:59:20;7.32;;;4.68;;
78995;SDS011;68401;47.192;-1.552;2023-09-12T09:01:45;8.30;;;4.90;;
78995;SDS011;68401;47.192;-1.552;2023-09-12T09:04:11;7.45;;;4.20;;
78995;SDS011;68401;47.192;-1.552;2023-09-12T09:06:37;6.15;;;4.65;;
78995;SDS011;68401;47.192;-1.552;2023-09-12T09:09:05;10.95;;;4.80;;
78995;SDS011;68401;47.192;-1.552;2023-09-12T09:11:31;7.07;;;4.30;;
78995;SDS011;68401;47.192;-1.552;2023-09-12T09:13:57;6.22;;;4.13;;
78995;SDS011;68401;47.192;-1.552;2023-09-12T09:16:23;8.75;;;4.85;;
78995;SDS011;68401;47.192;-1.552;2023-09-12T09:18:49;10.27;;;5.60;;
78995;SDS011;68401;47.192;-1.552;2023-09-12T09:21:18;7.50;;;6.45;;
78995;SDS011;68401;47.192;-1.552;2023-09-12T09:23:47;8.77;;;5.80;;
78995;SDS011;68401;47.192;-1.552;2023-09-12T09:26:13;7.80;;;5.75;;
78995;SDS011;68401;47.192;-1.552;2023-09-12T09:28:38;6.38;;;5.05;;
78995;SDS011;68401;47.192;-1.552;2023-09-12T09:31:04;7.85;;;4.78;;
78995;SDS011;68401;47.192;-1.552;2023-09-12T09:33:35;7.10;;;4.68;;
78995;SDS011;68401;47.192;-1.552;2023-09-12T09:36:02;7.65;;;5.43;;
78995;SDS011;68401;47.192;-1.552;2023-09-12T09:43:20;6.22;;;4.57;;
78995;SDS011;68401;47.192;-1.552;2023-09-12T09:45:46;9.48;;;5.03;;
78995;SDS011;68401;47.192;-1.552;2023-09-12T09:48:19;6.18;;;4.45;;
78995;SDS011;68401;47.192;-1.552;2023-09-12T09:50:45;5.78;;;5.05;;
78995;SDS011;68401;47.192;-1.552;2023-09-12T09:53:10;8.30;;;4.88;;
78995;SDS011;68401;47.192;-1.552;2023-09-12T09:55:36;5.68;;;4.05;;
78995;SDS011;68401;47.192;-1.552;2023-09-12T09:58:02;5.78;;;3.97;;
78995;SDS011;68401;47.192;-1.552;2023-09-12T10:00:30;8.07;;;5.82;;
78995;SDS011;68401;47.192;-1.552;2023-09-12T10:02:58;5.43;;;3.97;;
78995;SDS011;68401;47.192;-1.552;2023-09-12T10:05:24;5.72;;;3.55;;
78995;SDS011;68401;47.192;-1.552;2023-09-12T10:07:50;6.13;;;3.42;;
78995;SDS011;68401;47.192;-1.552;2023-09-12T10:10:16;6.38;;;3.40;;
78995;SDS011;68401;47.192;-1.552;2023-09-12T10:12:45;5.22;;;3.35;;
78995;SDS011;68401;47.192;-1.552;2023-09-12T10:15:14;6.15;;;3.25;;
78995;SDS011;68401;47.192;-1.552;2023-09-12T10:17:40;6.40;;;3.45;;
78995;SDS011;68401;47.192;-1.552;2023-09-12T10:20:08;5.03;;;3.90;;
78995;SDS011;68401;47.192;-1.552;2023-09-12T10:25:45;4.30;;;3.30;;
78995;SDS011;68401;47.192;-1.552;2023-09-12T10:28:10;5.20;;;2.70;;
78995;SDS011;68401;47.192;-1.552;2023-09-12T10:30:36;4.65;;;3.60;;
78995;SDS011;68401;47.192;-1.552;2023-09-12T10:33:02;4.50;;;3.20;;
78995;SDS011;68401;47.192;-1.552;2023-09-12T10:35:29;3.92;;;3.03;;
78995;SDS011;68401;47.192;-1.552;2023-09-12T10:40:22;12.95;;;3.53;;
78995;SDS011;68401;47.192;-1.552;2023-09-12T10:42:47;6.13;;;3.55;;
78995;SDS011;68401;47.192;-1.552;2023-09-12T10:45:13;7.95;;;3.63;;
78995;SDS011;68401;47.192;-1.552;2023-09-12T10:47:38;5.13;;;3.20;;
78995;SDS011;68401;47.192;-1.552;2023-09-12T10:50:05;6.95;;;3.08;;
78995;SDS011;68401;47.192;-1.552;2023-09-12T10:52:32;10.85;;;3.40;;
78995;SDS011;68401;47.192;-1.552;2023-09-12T10:55:02;5.60;;;3.45;;
78995;SDS011;68401;47.192;-1.552;2023-09-12T10:57:29;5.95;;;2.58;;
78995;SDS011;68401;47.192;-1.552;2023-09-12T11:02:30;11.55;;;3.42;;
78995;SDS011;68401;47.192;-1.552;2023-09-12T11:05:00;4.47;;;3.17;;
78995;SDS011;68401;47.192;-1.552;2023-09-12T11:07:47;5.38;;;3.25;;
78995;SDS011;68401;47.192;-1.552;2023-09-12T11:12:43;5.55;;;3.58;;
78995;SDS011;68401;47.192;-1.552;2023-09-12T11:15:10;31.02;;;24.65;;
78995;SDS011;68401;47.192;-1.552;2023-09-12T11:17:39;4.65;;;3.20;;
78995;SDS011;68401;47.192;-1.552;2023-09-12T11:20:05;5.20;;;3.05;;
78995;SDS011;68401;47.192;-1.552;2023-09-12T11:25:16;13.63;;;10.38;;
78995;SDS011;68401;47.192;-1.552;2023-09-12T11:30:16;4.78;;;2.40;;
78995;SDS011;68401;47.192;-1.552;2023-09-12T11:32:42;5.65;;;2.88;;
78995;SDS011;68401;47.192;-1.552;2023-09-12T11:35:09;6.50;;;4.00;;
78995;SDS011;68401;47.192;-1.552;2023-09-12T11:37:35;4.60;;;2.40;;
78995;SDS011;68401;47.192;-1.552;2023-09-12T11:42:42;4.13;;;2.10;;
78995;SDS011;68401;47.192;-1.552;2023-09-12T11:45:11;4.55;;;2.38;;
78995;SDS011;68401;47.192;-1.552;2023-09-12T11:47:40;3.90;;;2.28;;
78995;SDS011;68401;47.192;-1.552;2023-09-12T11:50:06;3.67;;;2.13;;
78995;SDS011;68401;47.192;-1.552;2023-09-12T11:52:35;3.42;;;2.00;;
78995;SDS011;68401;47.192;-1.552;2023-09-12T11:55:02;4.28;;;1.90;;
78995;SDS011;68401;47.192;-1.552;2023-09-12T11:57:27;3.85;;;2.10;;
78995;SDS011;68401;47.192;-1.552;2023-09-12T11:59:53;2.75;;;1.90;;
78995;SDS011;68401;47.192;-1.552;2023-09-12T12:02:18;4.05;;;2.13;;
78995;SDS011;68401;47.192;-1.552;2023-09-12T12:04:44;4.93;;;2.83;;
78995;SDS011;68401;47.192;-1.552;2023-09-12T12:07:10;4.00;;;2.15;;
78995;SDS011;68401;47.192;-1.552;2023-09-12T12:09:36;3.50;;;2.15;;
78995;SDS011;68401;47.192;-1.552;2023-09-12T12:12:11;5.80;;;2.33;;
78995;SDS011;68401;47.192;-1.552;2023-09-12T12:14:38;3.65;;;2.05;;
78995;SDS011;68401;47.192;-1.552;2023-09-12T12:17:05;3.42;;;2.10;;
78995;SDS011;68401;47.192;-1.552;2023-09-12T12:19:32;4.82;;;1.80;;
78995;SDS011;68401;47.192;-1.552;2023-09-12T12:21:58;4.47;;;2.80;;
78995;SDS011;68401;47.192;-1.552;2023-09-12T12:24:23;3.85;;;1.90;;
78995;SDS011;68401;47.192;-1.552;2023-09-12T12:26:49;3.90;;;2.33;;
78995;SDS011;68401;47.192;-1.552;2023-09-12T12:29:14;3.17;;;1.98;;
78995;SDS011;68401;47.192;-1.552;2023-09-12T12:31:39;3.38;;;1.92;;
78995;SDS011;68401;47.192;-1.552;2023-09-12T12:34:05;4.30;;;2.63;;
78995;SDS011;68401;47.192;-1.552;2023-09-12T12:36:31;3.30;;;1.75;;
78995;SDS011;68401;47.192;-1.552;2023-09-12T12:38:56;3.38;;;1.80;;
78995;SDS011;68401;47.192;-1.552;2023-09-12T12:41:31;4.28;;;2.35;;
78995;SDS011;68401;47.192;-1.552;2023-09-12T12:43:57;2.65;;;1.70;;
78995;SDS011;68401;47.192;-1.552;2023-09-12T12:46:26;3.83;;;1.52;;
78995;SDS011;68401;47.192;-1.552;2023-09-12T12:48:51;2.17;;;1.50;;
78995;SDS011;68401;47.192;-1.552;2023-09-12T12:51:18;7.22;;;1.80;;
78995;SDS011;68401;47.192;-1.552;2023-09-12T12:53:49;5.30;;;1.60;;
78995;SDS011;68401;47.192;-1.552;2023-09-12T12:56:21;2.78;;;1.95;;
78995;SDS011;68401;47.192;-1.552;2023-09-12T12:58:49;5.65;;;1.88;;
78995;SDS011;68401;47.192;-1.552;2023-09-12T13:01:16;4.72;;;1.52;;
78995;SDS011;68401;47.192;-1.552;2023-09-12T13:03:42;2.40;;;1.50;;
78995;SDS011;68401;47.192;-1.552;2023-09-12T13:06:07;2.72;;;1.50;;
78995;SDS011;68401;47.192;-1.552;2023-09-12T13:08:38;3.45;;;1.60;;
78995;SDS011;68401;47.192;-1.552;2023-09-12T13:11:05;2.47;;;1.50;;
78995;SDS011;68401;47.192;-1.552;2023-09-12T13:13:31;3.60;;;1.70;;
78995;SDS011;68401;47.192;-1.552;2023-09-12T13:15:56;3.80;;;1.67;;
78995;SDS011;68401;47.192;-1.552;2023-09-12T13:18:22;4.65;;;1.58;;
78995;SDS011;68401;47.192;-1.552;2023-09-12T13:20:48;2.78;;;1.42;;
78995;SDS011;68401;47.192;-1.552;2023-09-12T13:23:13;2.83;;;1.83;;
78995;SDS011;68401;47.192;-1.552;2023-09-12T13:25:39;6.70;;;2.22;;
78995;SDS011;68401;47.192;-1.552;2023-09-12T13:28:04;3.08;;;1.83;;
78995;SDS011;68401;47.192;-1.552;2023-09-12T13:30:30;4.07;;;2.10;;
78995;SDS011;68401;47.192;-1.552;2023-09-12T13:32:55;5.60;;;1.85;;
78995;SDS011;68401;47.192;-1.552;2023-09-12T13:35:21;3.78;;;1.80;;
78995;SDS011;68401;47.192;-1.552;2023-09-12T13:37:46;3.75;;;1.73;;
78995;SDS011;68401;47.192;-1.552;2023-09-12T13:40:11;3.90;;;1.80;;
78995;SDS011;68401;47.192;-1.552;2023-09-12T13:42:37;2.33;;;1.63;;
78995;SDS011;68401;47.192;-1.552;2023-09-12T13:45:03;4.05;;;1.90;;
78995;SDS011;68401;47.192;-1.552;2023-09-12T13:47:29;3.22;;;1.83;;
78995;SDS011;68401;47.192;-1.552;2023-09-12T13:49:55;3.28;;;1.80;;
78995;SDS011;68401;47.192;-1.552;2023-09-12T13:52:21;3.92;;;1.85;;
78995;SDS011;68401;47.192;-1.552;2023-09-12T13:54:47;3.25;;;1.55;;
78995;SDS011;68401;47.192;-1.552;2023-09-12T13:57:13;3.65;;;1.63;;
78995;SDS011;68401;47.192;-1.552;2023-09-12T13:59:40;6.40;;;2.33;;
78995;SDS011;68401;47.192;-1.552;2023-09-12T14:02:06;3.80;;;1.50;;
78995;SDS011;68401;47.192;-1.552;2023-09-12T14:04:31;2.10;;;1.40;;
78995;SDS011;68401;47.192;-1.552;2023-09-12T14:06:57;2.30;;;1.23;;
78995;SDS011;68401;47.192;-1.552;2023-09-12T14:09:22;4.90;;;2.00;;
78995;SDS011;68401;47.192;-1.552;2023-09-12T14:11:47;3.28;;;1.50;;
78995;SDS011;68401;47.192;-1.552;2023-09-12T14:14:13;2.88;;;1.67;;
78995;SDS011;68401;47.192;-1.552;2023-09-12T14:16:38;4.82;;;1.63;;
78995;SDS011;68401;47.192;-1.552;2023-09-12T14:19:04;2.63;;;1.60;;
78995;SDS011;68401;47.192;-1.552;2023-09-12T14:21:29;2.55;;;1.75;;
78995;SDS011;68401;47.192;-1.552;2023-09-12T14:23:55;3.15;;;1.48;;
78995;SDS011;68401;47.192;-1.552;2023-09-12T14:26:20;3.03;;;1.90;;
78995;SDS011;68401;47.192;-1.552;2023-09-12T14:28:46;3.85;;;1.80;;
78995;SDS011;68401;47.192;-1.552;2023-09-12T14:31:11;3.22;;;1.80;;
78995;SDS011;68401;47.192;-1.552;2023-09-12T14:36:05;2.67;;;1.60;;
78995;SDS011;68401;47.192;-1.552;2023-09-12T14:38:32;4.13;;;1.50;;
78995;SDS011;68401;47.192;-1.552;2023-09-12T14:40:58;2.80;;;1.50;;
78995;SDS011;68401;47.192;-1.552;2023-09-12T14:43:23;2.47;;;1.52;;
78995;SDS011;68401;47.192;-1.552;2023-09-12T14:45:49;5.45;;;1.50;;
78995;SDS011;68401;47.192;-1.552;2023-09-12T14:48:15;2.85;;;2.03;;
78995;SDS011;68401;47.192;-1.552;2023-09-12T14:50:40;5.03;;;1.77;;
78995;SDS011;68401;47.192;-1.552;2023-09-12T14:53:06;2.97;;;1.77;;